sensor_id;sensor_type;location;lat;lon;timestamp;temperature;humidity
7129;DHT22;3606;52.930;8.644;2023-08-07T00:01:36;15.30;99.90
7129;DHT22;3606;52.930;8.644;2023-08-07T00:04:02;15.20;99.90
7129;DHT22;3606;52.930;8.644;2023-08-07T00:06:27;15.00;99.90
7129;DHT22;3606;52.930;8.644;2023-08-07T00:08:53;15.00;99.90
7129;DHT22;3606;52.930;8.644;2023-08-07T00:11:19;14.90;99.90
7129;DHT22;3606;52.930;8.644;2023-08-07T00:13:44;14.90;99.90
7129;DHT22;3606;52.930;8.644;2023-08-07T00:16:10;14.90;99.90
7129;DHT22;3606;52.930;8.644;2023-08-07T00:18:35;14.90;99.90
7129;DHT22;3606;52.930;8.644;2023-08-07T00:21:01;14.80;99.90
7129;DHT22;3606;52.930;8.644;2023-08-07T00:23:27;14.80;99.90
7129;DHT22;3606;52.930;8.644;2023-08-07T00:25:53;14.80;99.90
7129;DHT22;3606;52.930;8.644;2023-08-07T00:28:18;14.80;99.90
7129;DHT22;3606;52.930;8.644;2023-08-07T00:30:44;14.80;99.90
7129;DHT22;3606;52.930;8.644;2023-08-07T00:33:09;14.80;99.90
7129;DHT22;3606;52.930;8.644;2023-08-07T00:35:35;14.80;99.90
7129;DHT22;3606;52.930;8.644;2023-08-07T00:38:00;14.80;99.90
7129;DHT22;3606;52.930;8.644;2023-08-07T00:40:26;14.70;99.90
7129;DHT22;3606;52.930;8.644;2023-08-07T00:42:51;14.70;99.90
7129;DHT22;3606;52.930;8.644;2023-08-07T00:45:17;14.70;99.90
7129;DHT22;3606;52.930;8.644;2023-08-07T00:47:43;14.60;99.90
7129;DHT22;3606;52.930;8.644;2023-08-07T00:50:10;14.50;99.90
7129;DHT22;3606;52.930;8.644;2023-08-07T00:52:36;14.50;99.90
7129;DHT22;3606;52.930;8.644;2023-08-07T00:55:02;14.50;99.90
7129;DHT22;3606;52.930;8.644;2023-08-07T00:57:29;14.50;99.90
7129;DHT22;3606;52.930;8.644;2023-08-07T00:59:55;14.50;99.90
7129;DHT22;3606;52.930;8.644;2023-08-07T01:02:21;14.50;99.90
7129;DHT22;3606;52.930;8.644;2023-08-07T01:04:46;14.40;99.90
7129;DHT22;3606;52.930;8.644;2023-08-07T01:07:12;14.40;99.90
7129;DHT22;3606;52.930;8.644;2023-08-07T01:09:38;14.30;99.90
7129;DHT22;3606;52.930;8.644;2023-08-07T01:12:16;14.30;99.90
7129;DHT22;3606;52.930;8.644;2023-08-07T01:15:12;14.30;99.90
7129;DHT22;3606;52.930;8.644;2023-08-07T01:17:39;14.20;99.90
7129;DHT22;3606;52.930;8.644;2023-08-07T01:20:06;14.20;99.90
7129;DHT22;3606;52.930;8.644;2023-08-07T01:22:32;14.20;99.90
7129;DHT22;3606;52.930;8.644;2023-08-07T01:24:58;14.20;99.90
7129;DHT22;3606;52.930;8.644;2023-08-07T01:27:45;14.10;99.90
7129;DHT22;3606;52.930;8.644;2023-08-07T01:35:33;14.00;99.90
7129;DHT22;3606;52.930;8.644;2023-08-07T01:38:01;13.90;99.90
7129;DHT22;3606;52.930;8.644;2023-08-07T01:40:28;14.00;99.90
7129;DHT22;3606;52.930;8.644;2023-08-07T01:42:54;13.90;99.90
7129;DHT22;3606;52.930;8.644;2023-08-07T01:45:28;13.90;99.90
7129;DHT22;3606;52.930;8.644;2023-08-07T01:47:54;13.80;99.90
7129;DHT22;3606;52.930;8.644;2023-08-07T01:50:22;13.80;99.90
7129;DHT22;3606;52.930;8.644;2023-08-07T01:52:48;13.80;99.90
7129;DHT22;3606;52.930;8.644;2023-08-07T01:55:15;13.90;99.90
7129;DHT22;3606;52.930;8.644;2023-08-07T01:57:41;13.70;99.90
7129;DHT22;3606;52.930;8.644;2023-08-07T02:00:08;13.70;99.90
7129;DHT22;3606;52.930;8.644;2023-08-07T02:02:34;13.70;99.90
7129;DHT22;3606;52.930;8.644;2023-08-07T02:05:00;13.80;99.90
7129;DHT22;3606;52.930;8.644;2023-08-07T02:07:25;13.80;99.90
7129;DHT22;3606;52.930;8.644;2023-08-07T02:09:51;13.80;99.90
7129;DHT22;3606;52.930;8.644;2023-08-07T02:12:16;13.70;99.90
7129;DHT22;3606;52.930;8.644;2023-08-07T02:14:42;13.70;99.90
7129;DHT22;3606;52.930;8.644;2023-08-07T02:17:08;13.70;99.90
7129;DHT22;3606;52.930;8.644;2023-08-07T02:19:33;13.70;99.90
7129;DHT22;3606;52.930;8.644;2023-08-07T02:21:59;13.80;99.90
7129;DHT22;3606;52.930;8.644;2023-08-07T02:24:25;13.90;99.90
7129;DHT22;3606;52.930;8.644;2023-08-07T02:26:50;13.90;99.90
7129;DHT22;3606;52.930;8.644;2023-08-07T02:29:16;13.90;99.90
7129;DHT22;3606;52.930;8.644;2023-08-07T02:31:41;14.10;99.90
7129;DHT22;3606;52.930;8.644;2023-08-07T02:34:07;14.10;99.90
7129;DHT22;3606;52.930;8.644;2023-08-07T02:36:32;14.00;99.90
7129;DHT22;3606;52.930;8.644;2023-08-07T02:38:58;14.00;99.90
7129;DHT22;3606;52.930;8.644;2023-08-07T02:41:23;14.00;99.90
7129;DHT22;3606;52.930;8.644;2023-08-07T02:43:49;14.00;99.90
7129;DHT22;3606;52.930;8.644;2023-08-07T02:46:15;14.00;99.90
7129;DHT22;3606;52.930;8.644;2023-08-07T02:48:40;13.90;99.90
7129;DHT22;3606;52.930;8.644;2023-08-07T02:51:06;14.00;99.90
7129;DHT22;3606;52.930;8.644;2023-08-07T02:53:32;14.00;99.90
7129;DHT22;3606;52.930;8.644;2023-08-07T02:55:57;14.00;99.90
7129;DHT22;3606;52.930;8.644;2023-08-07T02:58:23;14.00;99.90
7129;DHT22;3606;52.930;8.644;2023-08-07T03:00:48;14.00;99.90
7129;DHT22;3606;52.930;8.644;2023-08-07T03:03:14;14.10;99.90
7129;DHT22;3606;52.930;8.644;2023-08-07T03:05:48;14.10;99.90
7129;DHT22;3606;52.930;8.644;2023-08-07T03:08:13;14.20;99.90
7129;DHT22;3606;52.930;8.644;2023-08-07T03:10:39;14.00;99.90
7129;DHT22;3606;52.930;8.644;2023-08-07T03:13:05;14.10;99.90
7129;DHT22;3606;52.930;8.644;2023-08-07T03:15:30;14.10;99.90
7129;DHT22;3606;52.930;8.644;2023-08-07T03:17:56;14.10;99.90
7129;DHT22;3606;52.930;8.644;2023-08-07T03:20:21;14.10;99.90
7129;DHT22;3606;52.930;8.644;2023-08-07T03:22:47;14.10;99.90
7129;DHT22;3606;52.930;8.644;2023-08-07T03:25:12;14.10;99.90
7129;DHT22;3606;52.930;8.644;2023-08-07T03:27:38;14.10;99.90
7129;DHT22;3606;52.930;8.644;2023-08-07T03:30:04;14.20;99.90
7129;DHT22;3606;52.930;8.644;2023-08-07T03:32:30;14.20;99.90
7129;DHT22;3606;52.930;8.644;2023-08-07T03:34:55;14.20;99.90
7129;DHT22;3606;52.930;8.644;2023-08-07T03:37:21;14.20;99.90
7129;DHT22;3606;52.930;8.644;2023-08-07T03:39:46;14.40;99.90
7129;DHT22;3606;52.930;8.644;2023-08-07T03:42:13;14.30;99.90
7129;DHT22;3606;52.930;8.644;2023-08-07T03:44:40;14.30;99.90
7129;DHT22;3606;52.930;8.644;2023-08-07T03:47:06;14.40;99.90
7129;DHT22;3606;52.930;8.644;2023-08-07T03:49:32;14.40;99.90
7129;DHT22;3606;52.930;8.644;2023-08-07T03:51:57;14.40;99.90
7129;DHT22;3606;52.930;8.644;2023-08-07T03:54:24;14.50;99.90
7129;DHT22;3606;52.930;8.644;2023-08-07T03:56:50;14.40;99.90
7129;DHT22;3606;52.930;8.644;2023-08-07T03:59:17;14.40;99.90
7129;DHT22;3606;52.930;8.644;2023-08-07T04:01:43;14.40;99.90
7129;DHT22;3606;52.930;8.644;2023-08-07T04:04:08;14.40;99.90
7129;DHT22;3606;52.930;8.644;2023-08-07T04:06:34;14.40;99.90
7129;DHT22;3606;52.930;8.644;2023-08-07T04:09:00;14.30;99.90
7129;DHT22;3606;52.930;8.644;2023-08-07T04:11:25;14.30;99.90
7129;DHT22;3606;52.930;8.644;2023-08-07T04:13:52;14.40;99.90
7129;DHT22;3606;52.930;8.644;2023-08-07T04:16:18;14.40;99.90
7129;DHT22;3606;52.930;8.644;2023-08-07T04:18:43;14.30;99.90
7129;DHT22;3606;52.930;8.644;2023-08-07T04:21:09;14.30;99.90
7129;DHT22;3606;52.930;8.644;2023-08-07T04:23:35;14.30;99.90
7129;DHT22;3606;52.930;8.644;2023-08-07T04:26:00;14.30;99.90
7129;DHT22;3606;52.930;8.644;2023-08-07T04:28:28;14.30;99.90
7129;DHT22;3606;52.930;8.644;2023-08-07T04:30:54;14.30;99.90
7129;DHT22;3606;52.930;8.644;2023-08-07T04:33:20;14.20;99.90
7129;DHT22;3606;52.930;8.644;2023-08-07T04:35:46;14.30;99.90
7129;DHT22;3606;52.930;8.644;2023-08-07T04:38:13;14.30;99.90
7129;DHT22;3606;52.930;8.644;2023-08-07T04:40:47;14.20;99.90
7129;DHT22;3606;52.930;8.644;2023-08-07T04:43:13;14.20;99.90
7129;DHT22;3606;52.930;8.644;2023-08-07T04:45:40;14.20;99.90
7129;DHT22;3606;52.930;8.644;2023-08-07T04:48:07;14.20;99.90
7129;DHT22;3606;52.930;8.644;2023-08-07T04:50:33;14.20;99.90
7129;DHT22;3606;52.930;8.644;2023-08-07T04:52:58;14.20;99.90
7129;DHT22;3606;52.930;8.644;2023-08-07T04:55:24;14.30;99.90
7129;DHT22;3606;52.930;8.644;2023-08-07T04:57:50;14.20;99.90
7129;DHT22;3606;52.930;8.644;2023-08-07T05:00:19;14.20;99.90
7129;DHT22;3606;52.930;8.644;2023-08-07T05:02:45;14.20;99.90
7129;DHT22;3606;52.930;8.644;2023-08-07T05:05:11;14.20;99.90
7129;DHT22;3606;52.930;8.644;2023-08-07T05:07:36;14.20;99.90
7129;DHT22;3606;52.930;8.644;2023-08-07T05:10:02;14.30;99.90
7129;DHT22;3606;52.930;8.644;2023-08-07T05:12:28;14.30;99.90
7129;DHT22;3606;52.930;8.644;2023-08-07T05:14:54;14.30;99.90
7129;DHT22;3606;52.930;8.644;2023-08-07T05:17:20;14.30;99.90
7129;DHT22;3606;52.930;8.644;2023-08-07T05:19:45;14.40;99.90
7129;DHT22;3606;52.930;8.644;2023-08-07T05:22:11;14.40;99.90
7129;DHT22;3606;52.930;8.644;2023-08-07T05:24:36;14.40;99.90
7129;DHT22;3606;52.930;8.644;2023-08-07T05:27:06;14.40;99.90
7129;DHT22;3606;52.930;8.644;2023-08-07T05:29:33;14.50;99.90
7129;DHT22;3606;52.930;8.644;2023-08-07T05:31:59;14.50;99.90
7129;DHT22;3606;52.930;8.644;2023-08-07T05:34:25;14.60;99.90
7129;DHT22;3606;52.930;8.644;2023-08-07T05:36:50;14.70;99.90
7129;DHT22;3606;52.930;8.644;2023-08-07T05:39:16;14.70;99.90
7129;DHT22;3606;52.930;8.644;2023-08-07T05:41:42;14.80;99.90
7129;DHT22;3606;52.930;8.644;2023-08-07T05:44:07;14.80;99.90
7129;DHT22;3606;52.930;8.644;2023-08-07T05:46:33;14.90;99.90
7129;DHT22;3606;52.930;8.644;2023-08-07T05:48:58;14.90;99.90
7129;DHT22;3606;52.930;8.644;2023-08-07T05:51:24;15.00;99.90
7129;DHT22;3606;52.930;8.644;2023-08-07T05:53:50;15.00;99.90
7129;DHT22;3606;52.930;8.644;2023-08-07T05:56:15;15.10;99.90
7129;DHT22;3606;52.930;8.644;2023-08-07T05:58:42;15.10;99.90
7129;DHT22;3606;52.930;8.644;2023-08-07T06:01:07;15.20;99.90
7129;DHT22;3606;52.930;8.644;2023-08-07T06:03:33;15.10;99.90
7129;DHT22;3606;52.930;8.644;2023-08-07T06:05:59;15.20;99.90
7129;DHT22;3606;52.930;8.644;2023-08-07T06:08:24;15.30;99.90
7129;DHT22;3606;52.930;8.644;2023-08-07T06:10:50;15.40;99.90
7129;DHT22;3606;52.930;8.644;2023-08-07T06:13:16;15.50;99.90
7129;DHT22;3606;52.930;8.644;2023-08-07T06:15:41;15.50;99.90
7129;DHT22;3606;52.930;8.644;2023-08-07T06:18:07;15.50;99.90
7129;DHT22;3606;52.930;8.644;2023-08-07T06:20:34;15.60;99.90
7129;DHT22;3606;52.930;8.644;2023-08-07T06:22:59;15.70;99.90
7129;DHT22;3606;52.930;8.644;2023-08-07T06:25:25;15.70;99.90
7129;DHT22;3606;52.930;8.644;2023-08-07T06:27:51;15.70;99.90
7129;DHT22;3606;52.930;8.644;2023-08-07T06:30:17;15.70;99.90
7129;DHT22;3606;52.930;8.644;2023-08-07T06:32:42;15.80;99.90
7129;DHT22;3606;52.930;8.644;2023-08-07T06:35:08;15.90;99.90
7129;DHT22;3606;52.930;8.644;2023-08-07T06:37:34;16.30;99.90
7129;DHT22;3606;52.930;8.644;2023-08-07T06:39:59;16.60;99.90
7129;DHT22;3606;52.930;8.644;2023-08-07T06:42:25;16.80;99.90
7129;DHT22;3606;52.930;8.644;2023-08-07T06:44:50;16.90;99.90
7129;DHT22;3606;52.930;8.644;2023-08-07T06:47:16;17.00;99.90
7129;DHT22;3606;52.930;8.644;2023-08-07T06:49:42;17.20;99.90
7129;DHT22;3606;52.930;8.644;2023-08-07T06:52:07;17.60;99.90
7129;DHT22;3606;52.930;8.644;2023-08-07T06:54:33;17.80;99.90
7129;DHT22;3606;52.930;8.644;2023-08-07T06:56:59;18.00;99.90
7129;DHT22;3606;52.930;8.644;2023-08-07T06:59:24;18.20;99.90
7129;DHT22;3606;52.930;8.644;2023-08-07T07:01:51;18.20;99.90
7129;DHT22;3606;52.930;8.644;2023-08-07T07:04:17;17.60;99.90
7129;DHT22;3606;52.930;8.644;2023-08-07T07:06:43;17.00;99.90
7129;DHT22;3606;52.930;8.644;2023-08-07T07:09:09;16.40;99.90
7129;DHT22;3606;52.930;8.644;2023-08-07T07:11:34;15.70;99.90
7129;DHT22;3606;52.930;8.644;2023-08-07T07:14:00;15.10;99.90
7129;DHT22;3606;52.930;8.644;2023-08-07T07:16:25;15.00;99.90
7129;DHT22;3606;52.930;8.644;2023-08-07T07:18:51;15.00;99.90
7129;DHT22;3606;52.930;8.644;2023-08-07T07:21:17;15.10;99.90
7129;DHT22;3606;52.930;8.644;2023-08-07T07:23:43;15.20;99.90
7129;DHT22;3606;52.930;8.644;2023-08-07T07:26:09;15.40;99.90
7129;DHT22;3606;52.930;8.644;2023-08-07T07:28:34;15.60;99.90
7129;DHT22;3606;52.930;8.644;2023-08-07T07:31:00;15.70;99.90
7129;DHT22;3606;52.930;8.644;2023-08-07T07:33:25;15.80;99.90
7129;DHT22;3606;52.930;8.644;2023-08-07T07:35:51;16.00;99.90
7129;DHT22;3606;52.930;8.644;2023-08-07T07:38:17;16.10;99.90
7129;DHT22;3606;52.930;8.644;2023-08-07T07:40:43;16.20;99.90
7129;DHT22;3606;52.930;8.644;2023-08-07T07:43:08;16.70;99.90
7129;DHT22;3606;52.930;8.644;2023-08-07T07:45:34;17.40;99.90
7129;DHT22;3606;52.930;8.644;2023-08-07T07:48:02;18.10;99.90
7129;DHT22;3606;52.930;8.644;2023-08-07T07:50:27;18.00;99.90
7129;DHT22;3606;52.930;8.644;2023-08-07T07:52:53;17.90;99.90
7129;DHT22;3606;52.930;8.644;2023-08-07T07:55:18;18.10;99.90
7129;DHT22;3606;52.930;8.644;2023-08-07T07:57:44;18.30;99.90
7129;DHT22;3606;52.930;8.644;2023-08-07T08:00:10;18.20;99.90
7129;DHT22;3606;52.930;8.644;2023-08-07T08:02:42;18.10;99.90
7129;DHT22;3606;52.930;8.644;2023-08-07T08:05:08;18.00;99.90
7129;DHT22;3606;52.930;8.644;2023-08-07T08:07:37;18.30;99.90
7129;DHT22;3606;52.930;8.644;2023-08-07T08:10:02;18.30;99.90
7129;DHT22;3606;52.930;8.644;2023-08-07T08:12:30;18.10;99.90
7129;DHT22;3606;52.930;8.644;2023-08-07T08:14:55;18.10;99.90
7129;DHT22;3606;52.930;8.644;2023-08-07T08:17:22;18.30;99.90
7129;DHT22;3606;52.930;8.644;2023-08-07T08:19:48;18.40;99.90
7129;DHT22;3606;52.930;8.644;2023-08-07T08:22:13;18.30;99.90
7129;DHT22;3606;52.930;8.644;2023-08-07T08:24:39;18.00;99.90
7129;DHT22;3606;52.930;8.644;2023-08-07T08:27:05;17.60;99.90
7129;DHT22;3606;52.930;8.644;2023-08-07T08:29:30;17.30;99.90
7129;DHT22;3606;52.930;8.644;2023-08-07T08:31:56;17.90;99.90
7129;DHT22;3606;52.930;8.644;2023-08-07T08:34:22;18.90;99.90
7129;DHT22;3606;52.930;8.644;2023-08-07T08:36:47;19.70;99.90
7129;DHT22;3606;52.930;8.644;2023-08-07T08:39:13;20.30;99.90
7129;DHT22;3606;52.930;8.644;2023-08-07T08:41:40;20.20;99.90
7129;DHT22;3606;52.930;8.644;2023-08-07T08:44:07;19.80;99.90
7129;DHT22;3606;52.930;8.644;2023-08-07T08:46:34;19.00;99.90
7129;DHT22;3606;52.930;8.644;2023-08-07T08:49:01;18.10;99.90
7129;DHT22;3606;52.930;8.644;2023-08-07T08:51:29;17.20;99.90
7129;DHT22;3606;52.930;8.644;2023-08-07T08:53:55;16.70;99.90
7129;DHT22;3606;52.930;8.644;2023-08-07T08:56:22;16.50;99.90
7129;DHT22;3606;52.930;8.644;2023-08-07T08:58:50;16.40;99.90
7129;DHT22;3606;52.930;8.644;2023-08-07T09:01:17;16.30;99.90
7129;DHT22;3606;52.930;8.644;2023-08-07T09:03:47;16.10;99.90
7129;DHT22;3606;52.930;8.644;2023-08-07T09:06:13;16.00;99.90
7129;DHT22;3606;52.930;8.644;2023-08-07T09:08:42;16.00;99.90
7129;DHT22;3606;52.930;8.644;2023-08-07T09:11:08;16.10;99.90
7129;DHT22;3606;52.930;8.644;2023-08-07T09:13:34;16.30;99.90
7129;DHT22;3606;52.930;8.644;2023-08-07T09:16:01;17.20;99.90
7129;DHT22;3606;52.930;8.644;2023-08-07T09:18:27;18.90;99.90
7129;DHT22;3606;52.930;8.644;2023-08-07T09:20:53;20.00;6.70
7129;DHT22;3606;52.930;8.644;2023-08-07T09:23:19;20.60;1.00
7129;DHT22;3606;52.930;8.644;2023-08-07T09:25:45;20.80;99.90
7129;DHT22;3606;52.930;8.644;2023-08-07T09:28:11;21.50;1.00
7129;DHT22;3606;52.930;8.644;2023-08-07T09:30:37;21.40;1.00
7129;DHT22;3606;52.930;8.644;2023-08-07T09:33:04;20.00;99.90
7129;DHT22;3606;52.930;8.644;2023-08-07T09:35:30;18.30;99.90
7129;DHT22;3606;52.930;8.644;2023-08-07T09:37:59;17.20;99.90
7129;DHT22;3606;52.930;8.644;2023-08-07T09:40:26;16.60;1.00
7129;DHT22;3606;52.930;8.644;2023-08-07T09:42:53;16.50;1.00
7129;DHT22;3606;52.930;8.644;2023-08-07T09:45:24;17.90;1.00
7129;DHT22;3606;52.930;8.644;2023-08-07T09:48:03;19.40;99.90
7129;DHT22;3606;52.930;8.644;2023-08-07T09:50:30;20.90;99.90
7129;DHT22;3606;52.930;8.644;2023-08-07T09:52:57;21.20;99.90
7129;DHT22;3606;52.930;8.644;2023-08-07T09:55:26;21.90;1.00
7129;DHT22;3606;52.930;8.644;2023-08-07T09:57:52;22.20;1.00
7129;DHT22;3606;52.930;8.644;2023-08-07T10:00:19;22.00;99.90
7129;DHT22;3606;52.930;8.644;2023-08-07T10:02:48;21.80;99.90
7129;DHT22;3606;52.930;8.644;2023-08-07T10:05:14;22.10;99.90
7129;DHT22;3606;52.930;8.644;2023-08-07T10:07:41;21.00;99.90
7129;DHT22;3606;52.930;8.644;2023-08-07T10:10:07;19.70;1.00
7129;DHT22;3606;52.930;8.644;2023-08-07T10:12:33;18.80;1.00
7129;DHT22;3606;52.930;8.644;2023-08-07T10:15:00;17.90;99.90
7129;DHT22;3606;52.930;8.644;2023-08-07T10:17:26;17.20;99.90
7129;DHT22;3606;52.930;8.644;2023-08-07T10:19:52;16.60;1.00
7129;DHT22;3606;52.930;8.644;2023-08-07T10:22:23;16.10;99.90
7129;DHT22;3606;52.930;8.644;2023-08-07T10:24:50;16.30;1.00
7129;DHT22;3606;52.930;8.644;2023-08-07T10:27:19;16.90;77.70
7129;DHT22;3606;52.930;8.644;2023-08-07T10:29:48;17.80;99.90
7129;DHT22;3606;52.930;8.644;2023-08-07T10:32:17;18.80;1.00
7129;DHT22;3606;52.930;8.644;2023-08-07T10:34:49;20.10;1.00
7129;DHT22;3606;52.930;8.644;2023-08-07T10:37:40;21.00;1.00
7129;DHT22;3606;52.930;8.644;2023-08-07T10:40:07;21.20;1.00
7129;DHT22;3606;52.930;8.644;2023-08-07T10:42:51;21.20;1.00
7129;DHT22;3606;52.930;8.644;2023-08-07T10:45:18;20.40;1.00
7129;DHT22;3606;52.930;8.644;2023-08-07T10:48:11;18.60;99.90
7129;DHT22;3606;52.930;8.644;2023-08-07T10:53:33;16.00;1.00
7129;DHT22;3606;52.930;8.644;2023-08-07T10:56:05;16.00;1.00
7129;DHT22;3606;52.930;8.644;2023-08-07T10:58:40;16.00;99.90
7129;DHT22;3606;52.930;8.644;2023-08-07T11:04:05;16.60;99.90
7129;DHT22;3606;52.930;8.644;2023-08-07T11:06:32;17.50;99.90
7129;DHT22;3606;52.930;8.644;2023-08-07T11:08:59;18.40;99.90
7129;DHT22;3606;52.930;8.644;2023-08-07T11:11:26;19.00;99.90
7129;DHT22;3606;52.930;8.644;2023-08-07T11:13:52;19.50;99.90
7129;DHT22;3606;52.930;8.644;2023-08-07T11:16:18;19.90;1.00
7129;DHT22;3606;52.930;8.644;2023-08-07T11:18:47;19.20;1.00
7129;DHT22;3606;52.930;8.644;2023-08-07T11:21:13;18.60;1.00
7129;DHT22;3606;52.930;8.644;2023-08-07T11:23:39;18.60;1.00
7129;DHT22;3606;52.930;8.644;2023-08-07T11:26:06;18.70;99.90
7129;DHT22;3606;52.930;8.644;2023-08-07T11:28:32;19.00;1.00
7129;DHT22;3606;52.930;8.644;2023-08-07T11:30:58;19.90;1.00
7129;DHT22;3606;52.930;8.644;2023-08-07T11:33:25;20.80;1.00
7129;DHT22;3606;52.930;8.644;2023-08-07T11:35:51;21.50;1.00
7129;DHT22;3606;52.930;8.644;2023-08-07T11:38:38;20.80;1.00
7129;DHT22;3606;52.930;8.644;2023-08-07T11:41:06;18.60;1.00
7129;DHT22;3606;52.930;8.644;2023-08-07T11:43:36;17.30;1.00
7129;DHT22;3606;52.930;8.644;2023-08-07T11:46:04;16.80;1.00
7129;DHT22;3606;52.930;8.644;2023-08-07T11:48:31;16.70;1.00
7129;DHT22;3606;52.930;8.644;2023-08-07T11:50:58;16.80;99.90
7129;DHT22;3606;52.930;8.644;2023-08-07T11:53:31;17.30;1.00
7129;DHT22;3606;52.930;8.644;2023-08-07T11:55:59;18.30;40.30
7129;DHT22;3606;52.930;8.644;2023-08-07T11:58:27;19.30;1.00
7129;DHT22;3606;52.930;8.644;2023-08-07T12:00:53;19.80;99.90
7129;DHT22;3606;52.930;8.644;2023-08-07T12:03:27;19.20;99.90
7129;DHT22;3606;52.930;8.644;2023-08-07T12:05:55;18.80;1.00
7129;DHT22;3606;52.930;8.644;2023-08-07T12:08:20;18.80;99.90
7129;DHT22;3606;52.930;8.644;2023-08-07T12:10:53;18.70;99.90
7129;DHT22;3606;52.930;8.644;2023-08-07T12:13:26;18.30;99.90
7129;DHT22;3606;52.930;8.644;2023-08-07T12:15:56;18.60;99.90
7129;DHT22;3606;52.930;8.644;2023-08-07T12:18:23;19.00;99.90
7129;DHT22;3606;52.930;8.644;2023-08-07T12:20:50;19.20;1.00
7129;DHT22;3606;52.930;8.644;2023-08-07T12:23:17;19.30;1.00
7129;DHT22;3606;52.930;8.644;2023-08-07T12:25:44;19.70;1.00
7129;DHT22;3606;52.930;8.644;2023-08-07T12:28:10;19.70;1.00
7129;DHT22;3606;52.930;8.644;2023-08-07T12:30:36;19.60;1.00
7129;DHT22;3606;52.930;8.644;2023-08-07T12:33:02;19.40;1.00
7129;DHT22;3606;52.930;8.644;2023-08-07T12:35:30;19.50;1.00
7129;DHT22;3606;52.930;8.644;2023-08-07T12:37:56;19.30;1.00
7129;DHT22;3606;52.930;8.644;2023-08-07T12:40:21;18.90;32.60
7129;DHT22;3606;52.930;8.644;2023-08-07T12:42:48;18.20;99.90
7129;DHT22;3606;52.930;8.644;2023-08-07T12:45:14;17.60;19.80
7129;DHT22;3606;52.930;8.644;2023-08-07T12:47:41;16.90;1.00
7129;DHT22;3606;52.930;8.644;2023-08-07T12:50:08;16.40;1.00
7129;DHT22;3606;52.930;8.644;2023-08-07T12:52:34;16.00;1.00
7129;DHT22;3606;52.930;8.644;2023-08-07T12:55:00;15.50;99.90
7129;DHT22;3606;52.930;8.644;2023-08-07T12:57:26;15.30;99.90
7129;DHT22;3606;52.930;8.644;2023-08-07T12:59:51;15.30;1.00
7129;DHT22;3606;52.930;8.644;2023-08-07T13:02:17;15.30;1.00
7129;DHT22;3606;52.930;8.644;2023-08-07T13:04:43;15.30;1.00
7129;DHT22;3606;52.930;8.644;2023-08-07T13:07:08;15.60;1.00
7129;DHT22;3606;52.930;8.644;2023-08-07T13:09:34;15.90;99.90
7129;DHT22;3606;52.930;8.644;2023-08-07T13:11:59;16.20;99.90
7129;DHT22;3606;52.930;8.644;2023-08-07T13:14:25;16.30;1.00
7129;DHT22;3606;52.930;8.644;2023-08-07T13:16:51;16.60;99.90
7129;DHT22;3606;52.930;8.644;2023-08-07T13:19:17;18.00;99.90
7129;DHT22;3606;52.930;8.644;2023-08-07T13:21:42;19.60;99.90
7129;DHT22;3606;52.930;8.644;2023-08-07T13:24:08;20.10;91.40
7129;DHT22;3606;52.930;8.644;2023-08-07T13:26:33;20.30;99.90
7129;DHT22;3606;52.930;8.644;2023-08-07T13:28:59;19.60;1.00
7129;DHT22;3606;52.930;8.644;2023-08-07T13:31:25;19.00;99.90
7129;DHT22;3606;52.930;8.644;2023-08-07T13:33:51;18.70;63.30
7129;DHT22;3606;52.930;8.644;2023-08-07T13:36:16;18.90;99.90
7129;DHT22;3606;52.930;8.644;2023-08-07T13:38:42;18.90;1.00
7129;DHT22;3606;52.930;8.644;2023-08-07T13:41:07;19.00;1.00
7129;DHT22;3606;52.930;8.644;2023-08-07T13:43:33;20.10;1.00
7129;DHT22;3606;52.930;8.644;2023-08-07T13:45:58;20.30;1.00
7129;DHT22;3606;52.930;8.644;2023-08-07T13:48:24;20.10;1.00
7129;DHT22;3606;52.930;8.644;2023-08-07T13:50:52;19.80;1.00
7129;DHT22;3606;52.930;8.644;2023-08-07T13:53:18;19.60;99.90
7129;DHT22;3606;52.930;8.644;2023-08-07T13:55:46;19.50;99.90
7129;DHT22;3606;52.930;8.644;2023-08-07T13:58:12;20.00;99.90
7129;DHT22;3606;52.930;8.644;2023-08-07T14:00:41;20.40;99.90
7129;DHT22;3606;52.930;8.644;2023-08-07T14:03:08;21.20;99.90
7129;DHT22;3606;52.930;8.644;2023-08-07T14:05:34;21.10;97.50
7129;DHT22;3606;52.930;8.644;2023-08-07T14:08:00;20.30;99.90
7129;DHT22;3606;52.930;8.644;2023-08-07T14:10:26;19.80;99.90
7129;DHT22;3606;52.930;8.644;2023-08-07T14:12:51;20.10;99.90
7129;DHT22;3606;52.930;8.644;2023-08-07T14:15:18;20.50;99.90
7129;DHT22;3606;52.930;8.644;2023-08-07T14:17:43;20.10;99.90
7129;DHT22;3606;52.930;8.644;2023-08-07T14:20:09;20.20;99.90
7129;DHT22;3606;52.930;8.644;2023-08-07T14:22:36;21.00;99.90
7129;DHT22;3606;52.930;8.644;2023-08-07T14:25:04;21.50;99.90
7129;DHT22;3606;52.930;8.644;2023-08-07T14:27:30;21.70;99.90
7129;DHT22;3606;52.930;8.644;2023-08-07T14:29:56;22.90;99.90
7129;DHT22;3606;52.930;8.644;2023-08-07T14:32:22;23.90;75.40
7129;DHT22;3606;52.930;8.644;2023-08-07T14:34:48;22.80;66.10
7129;DHT22;3606;52.930;8.644;2023-08-07T14:37:14;20.80;99.90
7129;DHT22;3606;52.930;8.644;2023-08-07T14:39:40;19.60;99.90
7129;DHT22;3606;52.930;8.644;2023-08-07T14:42:06;18.40;1.00
7129;DHT22;3606;52.930;8.644;2023-08-07T14:44:32;17.00;99.90
7129;DHT22;3606;52.930;8.644;2023-08-07T14:46:58;16.50;99.90
7129;DHT22;3606;52.930;8.644;2023-08-07T14:49:23;16.10;1.00
7129;DHT22;3606;52.930;8.644;2023-08-07T14:51:49;16.00;99.90
7129;DHT22;3606;52.930;8.644;2023-08-07T14:54:15;15.90;1.00
7129;DHT22;3606;52.930;8.644;2023-08-07T14:56:40;15.80;1.00
7129;DHT22;3606;52.930;8.644;2023-08-07T14:59:06;16.10;1.00
7129;DHT22;3606;52.930;8.644;2023-08-07T15:01:32;17.20;1.00
7129;DHT22;3606;52.930;8.644;2023-08-07T15:03:57;18.90;3.50
7129;DHT22;3606;52.930;8.644;2023-08-07T15:06:23;19.70;1.00
7129;DHT22;3606;52.930;8.644;2023-08-07T15:08:48;20.40;1.00
7129;DHT22;3606;52.930;8.644;2023-08-07T15:11:14;20.60;1.00
7129;DHT22;3606;52.930;8.644;2023-08-07T15:13:40;20.00;1.00
7129;DHT22;3606;52.930;8.644;2023-08-07T15:16:05;19.60;1.00
7129;DHT22;3606;52.930;8.644;2023-08-07T15:18:31;19.40;1.00
7129;DHT22;3606;52.930;8.644;2023-08-07T15:20:59;19.30;1.00
7129;DHT22;3606;52.930;8.644;2023-08-07T15:23:26;19.70;1.00
7129;DHT22;3606;52.930;8.644;2023-08-07T15:25:52;20.50;1.00
7129;DHT22;3606;52.930;8.644;2023-08-07T15:28:17;20.10;99.90
7129;DHT22;3606;52.930;8.644;2023-08-07T15:30:50;19.60;99.90
7129;DHT22;3606;52.930;8.644;2023-08-07T15:33:17;19.80;99.90
7129;DHT22;3606;52.930;8.644;2023-08-07T15:35:43;19.80;99.90
7129;DHT22;3606;52.930;8.644;2023-08-07T15:38:09;19.50;99.90
7129;DHT22;3606;52.930;8.644;2023-08-07T15:40:41;19.60;99.90
7129;DHT22;3606;52.930;8.644;2023-08-07T15:43:07;19.50;99.90
7129;DHT22;3606;52.930;8.644;2023-08-07T15:45:35;19.20;1.00
7129;DHT22;3606;52.930;8.644;2023-08-07T15:48:01;18.90;1.00
7129;DHT22;3606;52.930;8.644;2023-08-07T15:50:27;18.70;1.00
7129;DHT22;3606;52.930;8.644;2023-08-07T15:52:52;18.40;1.00
7129;DHT22;3606;52.930;8.644;2023-08-07T15:55:18;18.10;1.00
7129;DHT22;3606;52.930;8.644;2023-08-07T15:57:43;18.00;1.00
7129;DHT22;3606;52.930;8.644;2023-08-07T16:00:10;18.10;1.00
7129;DHT22;3606;52.930;8.644;2023-08-07T16:02:36;18.20;1.00
7129;DHT22;3606;52.930;8.644;2023-08-07T16:05:01;18.00;1.00
7129;DHT22;3606;52.930;8.644;2023-08-07T16:07:27;18.00;1.00
7129;DHT22;3606;52.930;8.644;2023-08-07T16:09:55;18.10;1.00
7129;DHT22;3606;52.930;8.644;2023-08-07T16:12:20;18.10;1.00